sensor_id;sensor_type;location;lat;lon;timestamp;P1;durP1;ratioP1;P2;durP2;ratioP2
2652;SDS011;1336;48.692;9.144;2022-09-21T05:00:49;4.47;;;3.80;;
2652;SDS011;1336;48.692;9.144;2022-09-21T05:01:41;6.32;;;4.30;;
2652;SDS011;1336;48.692;9.144;2022-09-21T05:02:31;4.23;;;3.60;;
2652;SDS011;1336;48.692;9.144;2022-09-21T05:03:23;5.72;;;3.78;;
2652;SDS011;1336;48.692;9.144;2022-09-21T05:04:15;6.55;;;4.43;;
2652;SDS011;1336;48.692;9.144;2022-09-21T05:05:06;4.40;;;4.07;;
2652;SDS011;1336;48.692;9.144;2022-09-21T05:05:58;5.45;;;4.53;;
2652;SDS011;1336;48.692;9.144;2022-09-21T05:06:49;5.85;;;4.55;;
2652;SDS011;1336;48.692;9.144;2022-09-21T05:07:40;7.13;;;4.50;;
2652;SDS011;1336;48.692;9.144;2022-09-21T05:08:32;5.22;;;4.70;;
2652;SDS011;1336;48.692;9.144;2022-09-21T05:09:41;4.85;;;3.88;;
2652;SDS011;1336;48.692;9.144;2022-09-21T05:10:50;6.45;;;4.43;;
2652;SDS011;1336;48.692;9.144;2022-09-21T05:11:42;4.40;;;4.00;;
2652;SDS011;1336;48.692;9.144;2022-09-21T05:12:34;4.95;;;4.45;;
2652;SDS011;1336;48.692;9.144;2022-09-21T05:13:25;4.70;;;4.00;;
2652;SDS011;1336;48.692;9.144;2022-09-21T05:14:16;5.05;;;3.67;;
2652;SDS011;1336;48.692;9.144;2022-09-21T05:15:08;4.67;;;4.27;;
2652;SDS011;1336;48.692;9.144;2022-09-21T05:16:01;8.20;;;4.10;;
2652;SDS011;1336;48.692;9.144;2022-09-21T05:16:52;4.70;;;4.22;;
2652;SDS011;1336;48.692;9.144;2022-09-21T05:17:44;4.45;;;4.05;;
2652;SDS011;1336;48.692;9.144;2022-09-21T05:18:35;5.05;;;4.28;;
2652;SDS011;1336;48.692;9.144;2022-09-21T05:19:27;4.93;;;4.40;;
2652;SDS011;1336;48.692;9.144;2022-09-21T05:20:18;4.27;;;3.87;;
2652;SDS011;1336;48.692;9.144;2022-09-21T05:21:10;4.72;;;4.30;;
2652;SDS011;1336;48.692;9.144;2022-09-21T05:22:02;4.50;;;4.10;;
2652;SDS011;1336;48.692;9.144;2022-09-21T05:22:54;5.32;;;4.82;;
2652;SDS011;1336;48.692;9.144;2022-09-21T05:23:44;6.40;;;5.13;;
2652;SDS011;1336;48.692;9.144;2022-09-21T05:24:36;5.82;;;5.28;;
2652;SDS011;1336;48.692;9.144;2022-09-21T05:25:27;5.43;;;4.93;;
2652;SDS011;1336;48.692;9.144;2022-09-21T05:26:19;5.93;;;5.15;;
2652;SDS011;1336;48.692;9.144;2022-09-21T05:27:10;6.00;;;5.37;;
2652;SDS011;1336;48.692;9.144;2022-09-21T05:28:02;6.15;;;5.55;;
2652;SDS011;1336;48.692;9.144;2022-09-21T05:28:54;6.40;;;5.32;;
2652;SDS011;1336;48.692;9.144;2022-09-21T05:29:46;6.30;;;5.20;;
2652;SDS011;1336;48.692;9.144;2022-09-21T05:30:37;5.90;;;5.28;;
2652;SDS011;1336;48.692;9.144;2022-09-21T05:31:33;7.22;;;5.50;;
2652;SDS011;1336;48.692;9.144;2022-09-21T05:32:32;6.03;;;5.50;;
2652;SDS011;1336;48.692;9.144;2022-09-21T05:33:33;8.15;;;6.10;;
2652;SDS011;1336;48.692;9.144;2022-09-21T05:34:29;6.45;;;5.82;;
2652;SDS011;1336;48.692;9.144;2022-09-21T05:35:30;6.63;;;5.80;;
2652;SDS011;1336;48.692;9.144;2022-09-21T05:36:29;6.47;;;5.45;;
2652;SDS011;1336;48.692;9.144;2022-09-21T05:37:36;6.25;;;5.65;;
2652;SDS011;1336;48.692;9.144;2022-09-21T05:38:47;6.68;;;5.22;;
2652;SDS011;1336;48.692;9.144;2022-09-21T05:39:38;5.95;;;5.35;;
2652;SDS011;1336;48.692;9.144;2022-09-21T05:40:31;6.22;;;4.88;;
2652;SDS011;1336;48.692;9.144;2022-09-21T05:41:22;6.75;;;4.45;;
2652;SDS011;1336;48.692;9.144;2022-09-21T05:42:15;5.40;;;4.90;;
2652;SDS011;1336;48.692;9.144;2022-09-21T05:43:06;5.47;;;4.82;;
2652;SDS011;1336;48.692;9.144;2022-09-21T05:43:59;4.93;;;4.53;;
2652;SDS011;1336;48.692;9.144;2022-09-21T05:44:51;4.47;;;4.07;;
2652;SDS011;1336;48.692;9.144;2022-09-21T05:45:45;4.60;;;4.18;;
2652;SDS011;1336;48.692;9.144;2022-09-21T05:46:40;4.97;;;4.13;;
2652;SDS011;1336;48.692;9.144;2022-09-21T05:47:36;7.25;;;4.20;;
2652;SDS011;1336;48.692;9.144;2022-09-21T05:48:30;5.05;;;4.60;;
2652;SDS011;1336;48.692;9.144;2022-09-21T05:49:31;5.43;;;4.80;;
2652;SDS011;1336;48.692;9.144;2022-09-21T05:50:40;6.07;;;5.10;;
2652;SDS011;1336;48.692;9.144;2022-09-21T05:51:41;5.10;;;4.70;;
2652;SDS011;1336;48.692;9.144;2022-09-21T05:52:38;5.50;;;5.00;;
2652;SDS011;1336;48.692;9.144;2022-09-21T05:53:38;5.05;;;4.57;;
2652;SDS011;1336;48.692;9.144;2022-09-21T05:54:40;5.13;;;4.65;;
2652;SDS011;1336;48.692;9.144;2022-09-21T05:55:42;5.20;;;4.70;;
2652;SDS011;1336;48.692;9.144;2022-09-21T05:56:45;7.97;;;5.43;;
2652;SDS011;1336;48.692;9.144;2022-09-21T05:57:45;5.78;;;5.28;;
2652;SDS011;1336;48.692;9.144;2022-09-21T05:58:42;5.40;;;4.75;;
2652;SDS011;1336;48.692;9.144;2022-09-21T05:59:50;5.47;;;4.97;;
2652;SDS011;1336;48.692;9.144;2022-09-21T06:00:53;6.55;;;4.75;;
2652;SDS011;1336;48.692;9.144;2022-09-21T06:01:56;5.57;;;4.78;;
2652;SDS011;1336;48.692;9.144;2022-09-21T06:02:56;5.60;;;4.88;;
2652;SDS011;1336;48.692;9.144;2022-09-21T06:04:01;5.95;;;5.07;;
2652;SDS011;1336;48.692;9.144;2022-09-21T06:04:54;5.35;;;4.70;;
2652;SDS011;1336;48.692;9.144;2022-09-21T06:05:46;8.38;;;4.68;;
2652;SDS011;1336;48.692;9.144;2022-09-21T06:06:38;6.10;;;5.47;;
2652;SDS011;1336;48.692;9.144;2022-09-21T06:07:29;6.40;;;5.70;;
2652;SDS011;1336;48.692;9.144;2022-09-21T06:08:21;7.03;;;5.53;;
2652;SDS011;1336;48.692;9.144;2022-09-21T06:09:12;7.03;;;5.43;;
2652;SDS011;1336;48.692;9.144;2022-09-21T06:10:04;6.85;;;5.57;;
2652;SDS011;1336;48.692;9.144;2022-09-21T06:10:55;8.38;;;5.55;;
2652;SDS011;1336;48.692;9.144;2022-09-21T06:11:47;7.43;;;6.28;;
2652;SDS011;1336;48.692;9.144;2022-09-21T06:12:38;7.30;;;6.60;;
2652;SDS011;1336;48.692;9.144;2022-09-21T06:13:31;6.90;;;6.10;;
2652;SDS011;1336;48.692;9.144;2022-09-21T06:14:22;7.90;;;6.20;;
2652;SDS011;1336;48.692;9.144;2022-09-21T06:15:15;7.00;;;6.00;;
2652;SDS011;1336;48.692;9.144;2022-09-21T06:16:06;8.87;;;6.60;;
2652;SDS011;1336;48.692;9.144;2022-09-21T06:16:59;8.80;;;6.22;;
2652;SDS011;1336;48.692;9.144;2022-09-21T06:17:52;6.45;;;5.85;;
2652;SDS011;1336;48.692;9.144;2022-09-21T06:18:43;5.60;;;5.15;;
2652;SDS011;1336;48.692;9.144;2022-09-21T06:19:34;9.00;;;6.80;;
2652;SDS011;1336;48.692;9.144;2022-09-21T06:20:26;7.50;;;6.80;;
2652;SDS011;1336;48.692;9.144;2022-09-21T06:21:17;10.00;;;6.90;;
2652;SDS011;1336;48.692;9.144;2022-09-21T06:22:08;16.58;;;12.65;;
2652;SDS011;1336;48.692;9.144;2022-09-21T06:22:59;14.47;;;12.93;;
2652;SDS011;1336;48.692;9.144;2022-09-21T06:23:51;18.20;;;14.85;;
2652;SDS011;1336;48.692;9.144;2022-09-21T06:24:42;19.03;;;15.73;;
2652;SDS011;1336;48.692;9.144;2022-09-21T06:25:34;18.20;;;13.90;;
2652;SDS011;1336;48.692;9.144;2022-09-21T06:26:25;14.17;;;12.70;;
2652;SDS011;1336;48.692;9.144;2022-09-21T06:27:18;14.05;;;11.18;;
2652;SDS011;1336;48.692;9.144;2022-09-21T06:28:09;14.60;;;12.53;;
2652;SDS011;1336;48.692;9.144;2022-09-21T06:29:02;14.90;;;12.43;;
2652;SDS011;1336;48.692;9.144;2022-09-21T06:29:53;15.30;;;12.70;;
2652;SDS011;1336;48.692;9.144;2022-09-21T06:30:48;16.58;;;13.50;;
2652;SDS011;1336;48.692;9.144;2022-09-21T06:31:40;13.05;;;11.65;;
2652;SDS011;1336;48.692;9.144;2022-09-21T06:32:33;11.10;;;9.98;;
2652;SDS011;1336;48.692;9.144;2022-09-21T06:33:24;12.13;;;10.20;;
2652;SDS011;1336;48.692;9.144;2022-09-21T06:34:16;10.50;;;9.05;;
2652;SDS011;1336;48.692;9.144;2022-09-21T06:35:07;10.47;;;9.37;;
2652;SDS011;1336;48.692;9.144;2022-09-21T06:35:59;11.90;;;8.73;;
2652;SDS011;1336;48.692;9.144;2022-09-21T06:36:50;8.98;;;8.07;;
2652;SDS011;1336;48.692;9.144;2022-09-21T06:37:42;8.98;;;8.13;;
2652;SDS011;1336;48.692;9.144;2022-09-21T06:38:32;9.03;;;8.13;;
2652;SDS011;1336;48.692;9.144;2022-09-21T06:39:24;9.98;;;8.98;;
2652;SDS011;1336;48.692;9.144;2022-09-21T06:40:15;8.80;;;7.93;;
2652;SDS011;1336;48.692;9.144;2022-09-21T06:41:07;8.93;;;8.13;;
2652;SDS011;1336;48.692;9.144;2022-09-21T06:41:57;8.77;;;7.90;;
2652;SDS011;1336;48.692;9.144;2022-09-21T06:42:49;9.13;;;8.32;;
2652;SDS011;1336;48.692;9.144;2022-09-21T06:43:47;14.65;;;9.82;;
2652;SDS011;1336;48.692;9.144;2022-09-21T06:44:39;12.18;;;9.27;;
2652;SDS011;1336;48.692;9.144;2022-09-21T06:45:30;14.90;;;9.17;;
2652;SDS011;1336;48.692;9.144;2022-09-21T06:46:22;13.93;;;8.85;;
2652;SDS011;1336;48.692;9.144;2022-09-21T06:47:13;12.50;;;8.90;;
2652;SDS011;1336;48.692;9.144;2022-09-21T06:48:06;13.55;;;8.48;;
2652;SDS011;1336;48.692;9.144;2022-09-21T06:48:57;12.27;;;9.45;;
2652;SDS011;1336;48.692;9.144;2022-09-21T06:49:49;9.50;;;8.60;;
2652;SDS011;1336;48.692;9.144;2022-09-21T06:50:39;9.83;;;8.63;;
2652;SDS011;1336;48.692;9.144;2022-09-21T06:51:31;14.57;;;8.40;;
2652;SDS011;1336;48.692;9.144;2022-09-21T06:52:22;12.87;;;9.07;;
2652;SDS011;1336;48.692;9.144;2022-09-21T06:53:14;11.07;;;8.95;;
2652;SDS011;1336;48.692;9.144;2022-09-21T06:54:05;9.77;;;8.75;;
2652;SDS011;1336;48.692;9.144;2022-09-21T06:54:57;10.60;;;9.60;;
2652;SDS011;1336;48.692;9.144;2022-09-21T06:55:47;16.83;;;8.50;;
2652;SDS011;1336;48.692;9.144;2022-09-21T06:56:39;11.73;;;9.60;;
2652;SDS011;1336;48.692;9.144;2022-09-21T06:57:32;12.32;;;9.18;;
2652;SDS011;1336;48.692;9.144;2022-09-21T06:58:24;10.40;;;8.45;;
2652;SDS011;1336;48.692;9.144;2022-09-21T06:59:14;13.97;;;8.60;;
2652;SDS011;1336;48.692;9.144;2022-09-21T07:00:07;10.20;;;9.15;;
2652;SDS011;1336;48.692;9.144;2022-09-21T07:01:03;12.55;;;9.30;;
2652;SDS011;1336;48.692;9.144;2022-09-21T07:01:56;11.15;;;8.63;;
2652;SDS011;1336;48.692;9.144;2022-09-21T07:02:47;17.87;;;10.23;;
2652;SDS011;1336;48.692;9.144;2022-09-21T07:03:41;12.15;;;9.32;;
2652;SDS011;1336;48.692;9.144;2022-09-21T07:04:32;15.00;;;10.18;;
2652;SDS011;1336;48.692;9.144;2022-09-21T07:05:24;13.82;;;9.50;;
2652;SDS011;1336;48.692;9.144;2022-09-21T07:06:15;13.17;;;9.90;;
2652;SDS011;1336;48.692;9.144;2022-09-21T07:07:07;19.35;;;10.05;;
2652;SDS011;1336;48.692;9.144;2022-09-21T07:07:58;18.40;;;10.40;;
2652;SDS011;1336;48.692;9.144;2022-09-21T07:08:50;11.85;;;10.25;;
2652;SDS011;1336;48.692;9.144;2022-09-21T07:09:41;17.63;;;11.25;;
2652;SDS011;1336;48.692;9.144;2022-09-21T07:10:33;15.07;;;10.68;;
2652;SDS011;1336;48.692;9.144;2022-09-21T07:11:24;13.40;;;10.87;;
2652;SDS011;1336;48.692;9.144;2022-09-21T07:12:16;11.02;;;9.32;;
2652;SDS011;1336;48.692;9.144;2022-09-21T07:13:07;13.73;;;10.30;;
2652;SDS011;1336;48.692;9.144;2022-09-21T07:13:59;12.30;;;11.00;;
2652;SDS011;1336;48.692;9.144;2022-09-21T07:14:50;11.57;;;10.47;;
2652;SDS011;1336;48.692;9.144;2022-09-21T07:15:41;14.75;;;9.85;;
2652;SDS011;1336;48.692;9.144;2022-09-21T07:16:32;15.13;;;9.80;;
2652;SDS011;1336;48.692;9.144;2022-09-21T07:17:24;10.52;;;9.50;;
2652;SDS011;1336;48.692;9.144;2022-09-21T07:18:15;10.45;;;9.45;;
2652;SDS011;1336;48.692;9.144;2022-09-21T07:19:08;12.18;;;9.35;;
2652;SDS011;1336;48.692;9.144;2022-09-21T07:19:59;12.75;;;9.10;;
2652;SDS011;1336;48.692;9.144;2022-09-21T07:20:51;11.57;;;9.57;;
2652;SDS011;1336;48.692;9.144;2022-09-21T07:21:41;10.50;;;9.27;;
2652;SDS011;1336;48.692;9.144;2022-09-21T07:22:34;10.80;;;9.73;;
2652;SDS011;1336;48.692;9.144;2022-09-21T07:23:25;16.40;;;9.70;;
2652;SDS011;1336;48.692;9.144;2022-09-21T07:24:16;14.35;;;8.77;;
2652;SDS011;1336;48.692;9.144;2022-09-21T07:25:07;13.13;;;9.80;;
2652;SDS011;1336;48.692;9.144;2022-09-21T07:26:00;10.60;;;9.55;;
2652;SDS011;1336;48.692;9.144;2022-09-21T07:26:52;11.77;;;9.18;;
2652;SDS011;1336;48.692;9.144;2022-09-21T07:27:44;10.50;;;9.45;;
2652;SDS011;1336;48.692;9.144;2022-09-21T07:28:36;12.43;;;9.20;;
2652;SDS011;1336;48.692;9.144;2022-09-21T07:29:29;12.63;;;9.57;;
2652;SDS011;1336;48.692;9.144;2022-09-21T07:30:20;10.73;;;8.80;;
2652;SDS011;1336;48.692;9.144;2022-09-21T07:31:12;10.13;;;9.02;;
2652;SDS011;1336;48.692;9.144;2022-09-21T07:32:05;9.43;;;8.63;;
2652;SDS011;1336;48.692;9.144;2022-09-21T07:32:57;11.00;;;8.60;;
2652;SDS011;1336;48.692;9.144;2022-09-21T07:33:47;10.30;;;9.20;;
2652;SDS011;1336;48.692;9.144;2022-09-21T07:34:40;11.73;;;8.18;;
2652;SDS011;1336;48.692;9.144;2022-09-21T07:35:31;10.45;;;7.78;;
2652;SDS011;1336;48.692;9.144;2022-09-21T07:36:23;11.93;;;8.65;;
2652;SDS011;1336;48.692;9.144;2022-09-21T07:37:14;10.52;;;8.05;;
2652;SDS011;1336;48.692;9.144;2022-09-21T07:38:06;8.85;;;8.05;;
2652;SDS011;1336;48.692;9.144;2022-09-21T07:38:57;9.33;;;8.40;;
2652;SDS011;1336;48.692;9.144;2022-09-21T07:39:49;10.88;;;8.00;;
2652;SDS011;1336;48.692;9.144;2022-09-21T07:40:40;9.90;;;7.70;;
2652;SDS011;1336;48.692;9.144;2022-09-21T07:41:31;14.32;;;7.63;;
2652;SDS011;1336;48.692;9.144;2022-09-21T07:42:22;11.47;;;7.53;;
2652;SDS011;1336;48.692;9.144;2022-09-21T07:43:14;12.25;;;7.10;;
2652;SDS011;1336;48.692;9.144;2022-09-21T07:44:05;7.80;;;6.63;;
2652;SDS011;1336;48.692;9.144;2022-09-21T07:44:57;7.72;;;6.10;;
2652;SDS011;1336;48.692;9.144;2022-09-21T07:45:51;10.30;;;7.23;;
2652;SDS011;1336;48.692;9.144;2022-09-21T07:46:44;9.20;;;7.68;;
2652;SDS011;1336;48.692;9.144;2022-09-21T07:47:37;9.80;;;6.90;;
2652;SDS011;1336;48.692;9.144;2022-09-21T07:48:29;8.65;;;6.85;;
2652;SDS011;1336;48.692;9.144;2022-09-21T07:49:20;10.60;;;8.40;;
2652;SDS011;1336;48.692;9.144;2022-09-21T07:50:13;8.43;;;6.10;;
2652;SDS011;1336;48.692;9.144;2022-09-21T07:51:04;8.25;;;6.28;;
2652;SDS011;1336;48.692;9.144;2022-09-21T07:51:58;7.47;;;6.47;;
2652;SDS011;1336;48.692;9.144;2022-09-21T07:52:49;6.83;;;5.80;;
2652;SDS011;1336;48.692;9.144;2022-09-21T07:53:41;8.50;;;6.15;;
2652;SDS011;1336;48.692;9.144;2022-09-21T07:54:33;8.98;;;6.10;;
2652;SDS011;1336;48.692;9.144;2022-09-21T07:55:26;8.52;;;5.85;;
2652;SDS011;1336;48.692;9.144;2022-09-21T07:56:17;7.68;;;6.60;;
2652;SDS011;1336;48.692;9.144;2022-09-21T07:57:09;6.65;;;5.95;;
2652;SDS011;1336;48.692;9.144;2022-09-21T07:58:18;6.88;;;6.28;;
2652;SDS011;1336;48.692;9.144;2022-09-21T07:59:27;7.85;;;6.10;;
2652;SDS011;1336;48.692;9.144;2022-09-21T08:00:21;9.40;;;6.18;;
2652;SDS011;1336;48.692;9.144;2022-09-21T08:01:13;7.75;;;5.38;;
2652;SDS011;1336;48.692;9.144;2022-09-21T08:02:04;6.90;;;5.97;;
2652;SDS011;1336;48.692;9.144;2022-09-21T08:02:55;6.68;;;5.85;;
2652;SDS011;1336;48.692;9.144;2022-09-21T08:03:47;11.93;;;5.53;;
2652;SDS011;1336;48.692;9.144;2022-09-21T08:04:39;9.52;;;5.53;;
2652;SDS011;1336;48.692;9.144;2022-09-21T08:05:31;7.10;;;5.70;;
2652;SDS011;1336;48.692;9.144;2022-09-21T08:06:24;7.03;;;5.43;;
2652;SDS011;1336;48.692;9.144;2022-09-21T08:07:16;7.15;;;5.80;;
2652;SDS011;1336;48.692;9.144;2022-09-21T08:08:08;11.25;;;5.95;;
2652;SDS011;1336;48.692;9.144;2022-09-21T08:08:59;6.00;;;5.37;;
2652;SDS011;1336;48.692;9.144;2022-09-21T08:09:51;6.15;;;5.20;;
2652;SDS011;1336;48.692;9.144;2022-09-21T08:10:43;6.78;;;5.22;;
2652;SDS011;1336;48.692;9.144;2022-09-21T08:11:34;6.47;;;5.77;;
2652;SDS011;1336;48.692;9.144;2022-09-21T08:12:26;9.65;;;5.22;;
2652;SDS011;1336;48.692;9.144;2022-09-21T08:13:17;7.77;;;5.60;;
2652;SDS011;1336;48.692;9.144;2022-09-21T08:14:09;7.57;;;5.15;;
2652;SDS011;1336;48.692;9.144;2022-09-21T08:15:00;6.50;;;5.07;;
2652;SDS011;1336;48.692;9.144;2022-09-21T08:15:56;7.57;;;5.72;;
2652;SDS011;1336;48.692;9.144;2022-09-21T08:16:47;5.55;;;4.72;;
2652;SDS011;1336;48.692;9.144;2022-09-21T08:17:39;7.90;;;5.40;;
2652;SDS011;1336;48.692;9.144;2022-09-21T08:18:30;11.07;;;6.05;;
2652;SDS011;1336;48.692;9.144;2022-09-21T08:19:22;9.38;;;5.85;;
2652;SDS011;1336;48.692;9.144;2022-09-21T08:20:14;6.70;;;4.97;;
2652;SDS011;1336;48.692;9.144;2022-09-21T08:21:08;9.10;;;5.53;;
2652;SDS011;1336;48.692;9.144;2022-09-21T08:22:00;8.07;;;4.93;;
2652;SDS011;1336;48.692;9.144;2022-09-21T08:22:54;7.60;;;3.92;;
2652;SDS011;1336;48.692;9.144;2022-09-21T08:23:44;9.38;;;4.75;;
2652;SDS011;1336;48.692;9.144;2022-09-21T08:24:37;9.80;;;4.60;;
2652;SDS011;1336;48.692;9.144;2022-09-21T08:25:30;9.38;;;4.70;;
2652;SDS011;1336;48.692;9.144;2022-09-21T08:26:23;8.20;;;4.10;;
2652;SDS011;1336;48.692;9.144;2022-09-21T08:27:14;4.23;;;3.83;;
2652;SDS011;1336;48.692;9.144;2022-09-21T08:28:05;7.25;;;3.80;;
2652;SDS011;1336;48.692;9.144;2022-09-21T08:28:56;9.43;;;4.33;;
2652;SDS011;1336;48.692;9.144;2022-09-21T08:29:48;6.65;;;4.05;;
2652;SDS011;1336;48.692;9.144;2022-09-21T08:30:39;6.00;;;3.80;;
2652;SDS011;1336;48.692;9.144;2022-09-21T08:31:31;13.77;;;4.10;;
2652;SDS011;1336;48.692;9.144;2022-09-21T08:32:21;10.87;;;3.53;;
2652;SDS011;1336;48.692;9.144;2022-09-21T08:33:13;4.55;;;3.20;;
2652;SDS011;1336;48.692;9.144;2022-09-21T08:34:04;4.83;;;3.80;;
2652;SDS011;1336;48.692;9.144;2022-09-21T08:34:56;7.22;;;4.70;;
2652;SDS011;1336;48.692;9.144;2022-09-21T08:35:52;5.50;;;4.73;;
2652;SDS011;1336;48.692;9.144;2022-09-21T08:36:46;7.20;;;5.53;;
2652;SDS011;1336;48.692;9.144;2022-09-21T08:37:36;7.60;;;4.40;;
2652;SDS011;1336;48.692;9.144;2022-09-21T08:38:31;7.05;;;4.40;;
2652;SDS011;1336;48.692;9.144;2022-09-21T08:39:23;5.22;;;3.90;;
2652;SDS011;1336;48.692;9.144;2022-09-21T08:40:14;4.47;;;3.40;;
2652;SDS011;1336;48.692;9.144;2022-09-21T08:41:12;5.70;;;3.50;;
2652;SDS011;1336;48.692;9.144;2022-09-21T08:42:11;5.25;;;3.45;;
2652;SDS011;1336;48.692;9.144;2022-09-21T08:43:14;6.72;;;3.13;;
2652;SDS011;1336;48.692;9.144;2022-09-21T08:44:09;4.70;;;2.70;;
2652;SDS011;1336;48.692;9.144;2022-09-21T08:45:03;5.45;;;2.80;;
2652;SDS011;1336;48.692;9.144;2022-09-21T08:46:02;4.82;;;2.80;;
2652;SDS011;1336;48.692;9.144;2022-09-21T08:46:59;8.60;;;2.45;;
2652;SDS011;1336;48.692;9.144;2022-09-21T08:47:55;3.85;;;2.60;;
2652;SDS011;1336;48.692;9.144;2022-09-21T08:48:49;6.35;;;2.47;;
2652;SDS011;1336;48.692;9.144;2022-09-21T08:49:49;7.82;;;2.45;;
2652;SDS011;1336;48.692;9.144;2022-09-21T08:50:43;3.47;;;2.10;;
2652;SDS011;1336;48.692;9.144;2022-09-21T08:51:40;3.10;;;2.22;;
2652;SDS011;1336;48.692;9.144;2022-09-21T08:52:38;5.90;;;3.35;;
2652;SDS011;1336;48.692;9.144;2022-09-21T08:53:30;8.90;;;3.13;;
2652;SDS011;1336;48.692;9.144;2022-09-21T08:54:25;7.00;;;3.78;;
2652;SDS011;1336;48.692;9.144;2022-09-21T08:55:19;8.68;;;3.75;;
2652;SDS011;1336;48.692;9.144;2022-09-21T08:56:13;2.83;;;2.25;;
2652;SDS011;1336;48.692;9.144;2022-09-21T08:57:07;3.30;;;2.08;;
2652;SDS011;1336;48.692;9.144;2022-09-21T08:58:00;3.25;;;1.85;;
2652;SDS011;1336;48.692;9.144;2022-09-21T08:58:52;4.18;;;2.72;;
2652;SDS011;1336;48.692;9.144;2022-09-21T08:59:44;5.50;;;3.60;;
2652;SDS011;1336;48.692;9.144;2022-09-21T09:00:37;6.80;;;2.83;;
2652;SDS011;1336;48.692;9.144;2022-09-21T09:01:37;8.10;;;2.97;;
2652;SDS011;1336;48.692;9.144;2022-09-21T09:02:45;6.78;;;3.05;;
2652;SDS011;1336;48.692;9.144;2022-09-21T09:04:07;9.18;;;2.88;;
2652;SDS011;1336;48.692;9.144;2022-09-21T09:05:21;6.65;;;2.60;;
2652;SDS011;1336;48.692;9.144;2022-09-21T09:06:23;5.50;;;2.80;;
2652;SDS011;1336;48.692;9.144;2022-09-21T09:07:27;1.90;;;1.70;;
2652;SDS011;1336;48.692;9.144;2022-09-21T09:08:39;5.43;;;2.28;;
2652;SDS011;1336;48.692;9.144;2022-09-21T09:09:58;3.85;;;2.33;;
2652;SDS011;1336;48.692;9.144;2022-09-21T09:10:58;4.38;;;2.22;;
2652;SDS011;1336;48.692;9.144;2022-09-21T09:12:00;6.38;;;2.53;;
2652;SDS011;1336;48.692;9.144;2022-09-21T09:13:01;3.05;;;2.28;;
2652;SDS011;1336;48.692;9.144;2022-09-21T09:14:20;5.25;;;2.42;;
2652;SDS011;1336;48.692;9.144;2022-09-21T09:15:25;7.32;;;2.03;;
2652;SDS011;1336;48.692;9.144;2022-09-21T09:16:40;1.88;;;1.38;;
2652;SDS011;1336;48.692;9.144;2022-09-21T09:17:44;3.65;;;1.85;;
2652;SDS011;1336;48.692;9.144;2022-09-21T09:18:42;4.43;;;2.00;;
2652;SDS011;1336;48.692;9.144;2022-09-21T09:19:39;3.78;;;2.17;;
2652;SDS011;1336;48.692;9.144;2022-09-21T09:20:35;3.50;;;1.60;;
2652;SDS011;1336;48.692;9.144;2022-09-21T09:21:31;3.08;;;1.80;;
2652;SDS011;1336;48.692;9.144;2022-09-21T09:22:28;2.42;;;1.63;;
2652;SDS011;1336;48.692;9.144;2022-09-21T09:23:23;6.43;;;1.88;;
2652;SDS011;1336;48.692;9.144;2022-09-21T09:24:22;2.50;;;1.30;;
2652;SDS011;1336;48.692;9.144;2022-09-21T09:25:20;1.80;;;1.15;;
2652;SDS011;1336;48.692;9.144;2022-09-21T09:26:15;6.90;;;2.08;;
2652;SDS011;1336;48.692;9.144;2022-09-21T09:27:11;2.00;;;1.20;;
2652;SDS011;1336;48.692;9.144;2022-09-21T09:28:12;3.72;;;1.55;;
2652;SDS011;1336;48.692;9.144;2022-09-21T09:29:12;2.15;;;1.60;;
2652;SDS011;1336;48.692;9.144;2022-09-21T09:30:12;2.75;;;2.03;;
2652;SDS011;1336;48.692;9.144;2022-09-21T09:31:10;2.97;;;1.80;;
2652;SDS011;1336;48.692;9.144;2022-09-21T09:32:08;3.05;;;1.52;;
2652;SDS011;1336;48.692;9.144;2022-09-21T09:33:04;3.75;;;1.70;;
2652;SDS011;1336;48.692;9.144;2022-09-21T09:34:07;3.75;;;2.22;;
2652;SDS011;1336;48.692;9.144;2022-09-21T09:35:03;3.42;;;1.85;;
2652;SDS011;1336;48.692;9.144;2022-09-21T09:36:05;2.03;;;1.45;;
2652;SDS011;1336;48.692;9.144;2022-09-21T09:36:58;1.80;;;1.58;;
2652;SDS011;1336;48.692;9.144;2022-09-21T09:37:51;6.80;;;1.70;;
2652;SDS011;1336;48.692;9.144;2022-09-21T09:38:49;4.28;;;1.73;;
2652;SDS011;1336;48.692;9.144;2022-09-21T09:39:50;4.50;;;1.88;;
2652;SDS011;1336;48.692;9.144;2022-09-21T09:42:27;3.00;;;1.55;;
2652;SDS011;1336;48.692;9.144;2022-09-21T09:43:29;2.30;;;1.52;;
2652;SDS011;1336;48.692;9.144;2022-09-21T09:44:39;2.47;;;1.73;;
2652;SDS011;1336;48.692;9.144;2022-09-21T09:45:46;2.95;;;1.55;;
2652;SDS011;1336;48.692;9.144;2022-09-21T09:46:48;2.88;;;1.60;;
2652;SDS011;1336;48.692;9.144;2022-09-21T09:47:53;3.35;;;1.80;;
2652;SDS011;1336;48.692;9.144;2022-09-21T09:49:09;2.53;;;1.70;;
2652;SDS011;1336;48.692;9.144;2022-09-21T09:50:10;4.68;;;1.90;;
2652;SDS011;1336;48.692;9.144;2022-09-21T09:51:06;2.40;;;1.40;;
2652;SDS011;1336;48.692;9.144;2022-09-21T09:52:01;3.70;;;1.25;;
2652;SDS011;1336;48.692;9.144;2022-09-21T09:52:56;3.75;;;1.52;;
2652;SDS011;1336;48.692;9.144;2022-09-21T09:53:55;2.95;;;1.30;;
2652;SDS011;1336;48.692;9.144;2022-09-21T09:54:50;2.97;;;1.30;;
2652;SDS011;1336;48.692;9.144;2022-09-21T09:55:42;3.83;;;1.33;;
2652;SDS011;1336;48.692;9.144;2022-09-21T09:56:36;2.70;;;1.50;;
2652;SDS011;1336;48.692;9.144;2022-09-21T09:57:29;2.63;;;1.20;;
2652;SDS011;1336;48.692;9.144;2022-09-21T09:58:21;2.65;;;1.15;;
2652;SDS011;1336;48.692;9.144;2022-09-21T09:59:27;3.38;;;1.40;;
2652;SDS011;1336;48.692;9.144;2022-09-21T10:00:24;4.13;;;1.55;;
2652;SDS011;1336;48.692;9.144;2022-09-21T10:02:26;2.65;;;1.10;;
2652;SDS011;1336;48.692;9.144;2022-09-21T10:03:20;4.50;;;1.65;;
2652;SDS011;1336;48.692;9.144;2022-09-21T10:04:13;2.42;;;1.80;;
2652;SDS011;1336;48.692;9.144;2022-09-21T10:05:11;3.88;;;1.70;;
2652;SDS011;1336;48.692;9.144;2022-09-21T10:06:11;2.17;;;1.45;;
2652;SDS011;1336;48.692;9.144;2022-09-21T10:07:20;4.88;;;1.63;;
2652;SDS011;1336;48.692;9.144;2022-09-21T10:08:31;4.60;;;1.63;;
2652;SDS011;1336;48.692;9.144;2022-09-21T10:09:32;4.10;;;1.48;;
2652;SDS011;1336;48.692;9.144;2022-09-21T10:10:33;2.15;;;1.15;;
2652;SDS011;1336;48.692;9.144;2022-09-21T10:11:33;2.72;;;1.00;;
2652;SDS011;1336;48.692;9.144;2022-09-21T10:12:26;1.40;;;1.10;;
2652;SDS011;1336;48.692;9.144;2022-09-21T10:13:18;1.70;;;0.90;;
2652;SDS011;1336;48.692;9.144;2022-09-21T10:14:16;2.17;;;1.10;;
2652;SDS011;1336;48.692;9.144;2022-09-21T10:15:10;3.08;;;1.10;;
2652;SDS011;1336;48.692;9.144;2022-09-21T10:16:04;2.00;;;1.20;;
2652;SDS011;1336;48.692;9.144;2022-09-21T10:17:02;1.30;;;1.00;;
2652;SDS011;1336;48.692;9.144;2022-09-21T10:17:56;2.17;;;1.00;;
2652;SDS011;1336;48.692;9.144;2022-09-21T10:18:56;1.75;;;1.10;;
2652;SDS011;1336;48.692;9.144;2022-09-21T10:19:57;1.30;;;1.00;;
2652;SDS011;1336;48.692;9.144;2022-09-21T10:20:56;1.75;;;1.20;;
2652;SDS011;1336;48.692;9.144;2022-09-21T10:21:51;2.70;;;1.33;;
2652;SDS011;1336;48.692;9.144;2022-09-21T10:22:46;1.70;;;1.25;;
2652;SDS011;1336;48.692;9.144;2022-09-21T10:23:44;2.83;;;1.80;;
2652;SDS011;1336;48.692;9.144;2022-09-21T10:24:37;1.42;;;1.25;;
2652;SDS011;1336;48.692;9.144;2022-09-21T10:25:36;3.45;;;1.30;;
2652;SDS011;1336;48.692;9.144;2022-09-21T10:26:29;1.40;;;1.20;;
2652;SDS011;1336;48.692;9.144;2022-09-21T10:27:23;2.88;;;1.40;;
2652;SDS011;1336;48.692;9.144;2022-09-21T10:28:16;2.75;;;1.25;;
2652;SDS011;1336;48.692;9.144;2022-09-21T10:29:16;2.30;;;1.13;;
2652;SDS011;1336;48.692;9.144;2022-09-21T10:30:11;4.43;;;1.23;;
2652;SDS011;1336;48.692;9.144;2022-09-21T10:31:25;3.92;;;1.23;;
2652;SDS011;1336;48.692;9.144;2022-09-21T10:32:23;2.25;;;1.23;;
2652;SDS011;1336;48.692;9.144;2022-09-21T10:33:17;4.75;;;1.60;;
2652;SDS011;1336;48.692;9.144;2022-09-21T10:34:11;1.92;;;1.00;;
2652;SDS011;1336;48.692;9.144;2022-09-21T10:35:14;2.17;;;1.15;;
2652;SDS011;1336;48.692;9.144;2022-09-21T10:36:07;2.40;;;0.98;;
2652;SDS011;1336;48.692;9.144;2022-09-21T10:37:23;2.72;;;1.23;;
2652;SDS011;1336;48.692;9.144;2022-09-21T10:38:17;2.33;;;1.20;;
2652;SDS011;1336;48.692;9.144;2022-09-21T10:39:11;4.13;;;1.15;;
2652;SDS011;1336;48.692;9.144;2022-09-21T10:40:21;10.52;;;1.33;;
2652;SDS011;1336;48.692;9.144;2022-09-21T10:41:18;3.72;;;2.97;;
2652;SDS011;1336;48.692;9.144;2022-09-21T10:42:11;4.45;;;3.53;;
2652;SDS011;1336;48.692;9.144;2022-09-21T10:43:04;6.32;;;5.50;;